createdAt,value
2018-05-08T00:02:02.669Z,3.00
2018-05-08T00:04:29.316Z,2.80
2018-05-08T00:06:55.968Z,3.00
2018-05-08T00:09:22.644Z,3.00
2018-05-08T00:11:49.288Z,2.67
2018-05-08T00:14:16.103Z,2.77
2018-05-08T00:16:42.764Z,2.70
2018-05-08T00:19:09.456Z,2.60
2018-05-08T00:21:36.240Z,2.37
2018-05-08T00:24:02.935Z,2.90
2018-05-08T00:26:29.631Z,2.63
2018-05-08T00:28:56.333Z,2.63
2018-05-08T00:31:23.027Z,2.60
2018-05-08T00:33:52.839Z,2.70
2018-05-08T00:36:19.535Z,2.83
2018-05-08T00:38:46.232Z,2.60
2018-05-08T00:41:12.927Z,2.80
2018-05-08T00:43:39.628Z,3.17
2018-05-08T00:46:06.343Z,2.90
2018-05-08T00:48:33.043Z,2.70
2018-05-08T00:50:59.735Z,3.00
2018-05-08T00:53:26.436Z,3.10
2018-05-08T00:55:53.131Z,3.07
2018-05-08T00:58:19.834Z,3.03
2018-05-08T01:00:46.527Z,2.60
2018-05-08T01:03:13.251Z,2.80
2018-05-08T01:05:39.952Z,2.93
2018-05-08T01:08:06.647Z,2.83
2018-05-08T01:10:33.341Z,2.63
2018-05-08T01:13:00.036Z,3.17
2018-05-08T01:15:26.752Z,3.30
2018-05-08T01:17:53.455Z,2.77
2018-05-08T01:20:20.155Z,2.83
2018-05-08T01:22:46.855Z,2.67
2018-05-08T01:25:13.551Z,2.77
2018-05-08T01:27:40.302Z,2.57
2018-05-08T01:30:06.997Z,2.80
2018-05-08T01:32:33.719Z,3.00
2018-05-08T01:35:00.436Z,3.10
2018-05-08T01:37:27.144Z,2.80
2018-05-08T01:39:53.865Z,2.90
2018-05-08T01:42:20.571Z,2.70
2018-05-08T01:44:47.296Z,2.90
2018-05-08T01:47:14.000Z,3.13
2018-05-08T01:49:40.817Z,3.03
2018-05-08T01:52:07.511Z,3.17
2018-05-08T01:54:34.204Z,3.30
2018-05-08T01:57:00.924Z,2.83
2018-05-08T01:59:27.628Z,2.93
2018-05-08T02:01:54.329Z,3.23
2018-05-08T02:04:21.029Z,2.87
2018-05-08T02:06:47.725Z,2.73
2018-05-08T02:09:14.436Z,2.90
2018-05-08T02:11:41.135Z,2.73
2018-05-08T02:14:07.829Z,2.93
2018-05-08T02:16:34.524Z,2.50
2018-05-08T02:19:01.284Z,2.80
2018-05-08T02:21:28.027Z,2.90
2018-05-08T02:23:54.751Z,2.97
2018-05-08T02:26:21.447Z,3.13
2018-05-08T02:28:48.152Z,2.90
2018-05-08T02:31:14.886Z,2.73
2018-05-08T02:33:41.621Z,2.90
2018-05-08T02:36:08.316Z,2.53
2018-05-08T02:38:35.017Z,2.70
2018-05-08T02:41:01.720Z,2.80
2018-05-08T02:43:28.416Z,2.87
2018-05-08T02:45:55.143Z,3.00
2018-05-08T02:48:21.839Z,2.80
2018-05-08T02:50:48.539Z,2.77
2018-05-08T02:53:15.235Z,3.00
2018-05-08T02:55:41.940Z,2.60
2018-05-08T02:58:08.656Z,2.77
2018-05-08T03:00:35.362Z,3.10
2018-05-08T03:03:02.063Z,3.30
2018-05-08T03:05:28.768Z,3.13
2018-05-08T03:07:55.416Z,2.93
2018-05-08T03:10:22.110Z,3.13
2018-05-08T03:12:48.806Z,2.70
2018-05-08T03:15:15.503Z,3.00
2018-05-08T03:17:42.199Z,2.67
2018-05-08T03:20:08.897Z,3.10
2018-05-08T03:22:35.635Z,2.80
2018-05-08T03:25:02.331Z,3.60
2018-05-08T03:27:29.037Z,3.20
2018-05-08T03:29:55.757Z,3.57
2018-05-08T03:32:22.457Z,2.87
2018-05-08T03:34:49.184Z,3.20
2018-05-08T03:37:15.875Z,2.63
2018-05-08T03:39:42.571Z,3.50
2018-05-08T03:42:09.263Z,3.17
2018-05-08T03:44:35.972Z,3.30
2018-05-08T03:47:02.667Z,2.97
2018-05-08T03:49:29.367Z,2.80
2018-05-08T03:51:56.063Z,2.83
2018-05-08T03:54:22.755Z,2.77
2018-05-08T03:56:49.484Z,2.37
2018-05-08T03:59:16.203Z,2.87
2018-05-08T04:01:48.608Z,2.50
2018-05-08T04:04:21.025Z,2.97
2018-05-08T04:06:59.343Z,3.00
2018-05-08T04:09:26.035Z,2.80
2018-05-08T04:11:52.732Z,2.70
2018-05-08T04:14:19.436Z,2.63
2018-05-08T04:16:46.151Z,2.90
2018-05-08T04:19:12.894Z,3.47
2018-05-08T04:21:39.607Z,2.50
2018-05-08T04:24:06.312Z,2.50
2018-05-08T04:26:33.007Z,2.57
2018-05-08T04:28:59.708Z,2.90
2018-05-08T04:31:26.427Z,2.60
2018-05-08T04:33:53.125Z,2.83
2018-05-08T04:36:19.828Z,3.00
2018-05-08T04:38:46.525Z,2.77
2018-05-08T04:41:13.216Z,2.80
2018-05-08T04:43:39.931Z,2.53
2018-05-08T04:46:06.636Z,3.00
2018-05-08T04:48:33.345Z,2.60
2018-05-08T04:51:00.043Z,2.80
2018-05-08T04:53:26.908Z,2.73
2018-05-08T04:55:53.694Z,2.63
2018-05-08T04:58:20.354Z,2.63
2018-05-08T05:00:47.062Z,2.70
2018-05-08T05:03:13.970Z,2.57
2018-05-08T05:05:40.659Z,3.00
2018-05-08T05:08:07.380Z,2.53
2018-05-08T05:10:34.076Z,2.67
2018-05-08T05:13:00.771Z,2.50
2018-05-08T05:15:27.546Z,2.87
2018-05-08T05:17:54.202Z,2.70
2018-05-08T05:20:21.057Z,2.90
2018-05-08T05:22:47.762Z,2.77
2018-05-08T05:25:14.456Z,2.47
2018-05-08T05:27:41.164Z,2.90
2018-05-08T05:30:07.860Z,2.60
2018-05-08T05:32:34.575Z,2.40
2018-05-08T05:35:01.276Z,2.63
2018-05-08T05:37:27.967Z,2.70
2018-05-08T05:39:54.683Z,2.73
2018-05-08T05:42:21.387Z,2.80
2018-05-08T05:44:48.107Z,2.80
2018-05-08T05:47:14.810Z,2.63
2018-05-08T05:49:41.506Z,2.70
2018-05-08T05:52:08.196Z,2.50
2018-05-08T05:54:34.904Z,2.57
2018-05-08T05:57:01.629Z,2.40
2018-05-08T05:59:28.338Z,2.60
2018-05-08T06:01:55.031Z,2.80
2018-05-08T06:04:21.736Z,2.47
2018-05-08T06:06:48.433Z,2.47
2018-05-08T06:09:15.151Z,2.27
2018-05-08T06:11:41.847Z,2.50
2018-05-08T06:14:08.553Z,2.50
2018-05-08T06:16:35.289Z,2.40
2018-05-08T06:19:01.992Z,2.57
2018-05-08T06:21:28.708Z,2.47
2018-05-08T06:23:55.411Z,2.33
2018-05-08T06:26:22.109Z,2.60
2018-05-08T06:28:48.818Z,2.50
2018-05-08T06:31:15.525Z,2.50
2018-05-08T06:33:42.235Z,2.50
2018-05-08T06:36:08.937Z,2.70
2018-05-08T06:38:35.712Z,2.60
2018-05-08T06:41:02.415Z,2.40
2018-05-08T06:43:29.115Z,2.47
2018-05-08T06:45:55.831Z,2.50
2018-05-08T06:48:22.531Z,2.30
2018-05-08T06:50:49.231Z,2.53
2018-05-08T06:53:15.923Z,2.77
2018-05-08T06:55:42.627Z,2.43
2018-05-08T06:58:09.339Z,2.40
2018-05-08T07:00:36.104Z,2.40
2018-05-08T07:03:02.800Z,2.50
2018-05-08T07:05:29.502Z,2.40
2018-05-08T07:07:56.202Z,2.73
2018-05-08T07:10:22.932Z,2.37
2018-05-08T07:12:49.636Z,2.60
2018-05-08T07:15:16.331Z,2.70
2018-05-08T07:17:43.027Z,2.57
2018-05-08T07:20:09.721Z,2.90
2018-05-08T07:22:36.499Z,2.57
2018-05-08T07:25:03.191Z,2.53
2018-05-08T07:27:29.893Z,2.40
2018-05-08T07:29:56.672Z,2.50
2018-05-08T07:32:23.311Z,2.47
2018-05-08T07:34:50.034Z,2.30
2018-05-08T07:37:16.731Z,2.40
2018-05-08T07:39:43.432Z,2.70
2018-05-08T07:42:10.155Z,2.23
2018-05-08T07:44:36.880Z,2.20
2018-05-08T07:47:03.580Z,2.23
2018-05-08T07:49:30.307Z,2.30
2018-05-08T07:51:57.000Z,2.40
2018-05-08T07:54:23.698Z,2.50
2018-05-08T07:56:50.405Z,2.43
2018-05-08T07:59:17.105Z,2.20
2018-05-08T08:01:43.823Z,2.37
2018-05-08T08:04:10.520Z,2.90
2018-05-08T08:06:37.211Z,2.50
2018-05-08T08:09:03.913Z,2.60
2018-05-08T08:11:30.611Z,2.57
2018-05-08T08:13:57.321Z,2.53
2018-05-08T08:16:24.020Z,2.37
2018-05-08T08:18:50.714Z,2.30
2018-05-08T08:21:17.411Z,2.20
2018-05-08T08:23:44.136Z,2.43
2018-05-08T08:26:10.864Z,2.40
2018-05-08T08:28:37.556Z,2.70
2018-05-08T08:31:04.251Z,2.40
2018-05-08T08:33:30.956Z,2.60
2018-05-08T08:35:57.651Z,2.30
2018-05-08T08:38:24.382Z,2.20
2018-05-08T08:40:51.195Z,2.40
2018-05-08T08:43:17.815Z,2.17
2018-05-08T08:45:44.519Z,2.33
2018-05-08T08:48:11.237Z,2.53
2018-05-08T08:50:37.951Z,2.60
2018-05-08T08:53:04.652Z,2.40
2018-05-08T08:55:31.344Z,2.73
2018-05-08T08:57:58.045Z,2.50
2018-05-08T09:00:24.742Z,2.60
2018-05-08T09:02:51.461Z,2.23
2018-05-08T09:05:18.152Z,2.60
2018-05-08T09:07:44.853Z,2.47
2018-05-08T09:10:11.551Z,4.07
2018-05-08T09:12:38.246Z,3.40
2018-05-08T09:15:04.975Z,2.80
2018-05-08T09:17:31.671Z,2.47
2018-05-08T09:19:58.367Z,2.53
2018-05-08T09:22:25.059Z,2.60
2018-05-08T09:24:51.767Z,2.80
2018-05-08T09:27:18.497Z,2.40
2018-05-08T09:29:45.188Z,2.40
2018-05-08T09:32:11.884Z,2.57
2018-05-08T09:34:38.584Z,2.40
2018-05-08T09:37:05.279Z,2.40
2018-05-08T09:39:32.003Z,2.67
2018-05-08T09:41:58.709Z,2.47
2018-05-08T09:44:25.402Z,2.13
2018-05-08T09:46:52.095Z,2.60
2018-05-08T09:49:18.793Z,2.73
2018-05-08T09:51:45.487Z,2.10
2018-05-08T09:54:12.445Z,2.63
2018-05-08T09:56:39.089Z,2.90
2018-05-08T09:59:05.791Z,2.53
2018-05-08T10:01:32.520Z,2.70
2018-05-08T10:03:59.215Z,2.50
2018-05-08T10:06:25.916Z,2.53
2018-05-08T10:08:52.642Z,2.60
2018-05-08T10:11:19.339Z,2.53
2018-05-08T10:13:46.037Z,2.50
2018-05-08T10:16:12.774Z,2.23
2018-05-08T10:18:39.473Z,2.60
2018-05-08T10:21:06.176Z,2.33
2018-05-08T10:23:32.875Z,2.80
2018-05-08T10:25:59.575Z,2.23
2018-05-08T10:28:26.492Z,2.60
2018-05-08T10:30:53.192Z,2.37
2018-05-08T10:33:19.885Z,2.23
2018-05-08T10:35:46.584Z,2.30
2018-05-08T10:38:13.283Z,2.30
2018-05-08T10:40:39.999Z,2.60
2018-05-08T10:43:06.693Z,2.90
2018-05-08T10:45:33.388Z,2.63
2018-05-08T10:48:00.083Z,2.70
2018-05-08T10:50:26.791Z,2.58
2018-05-08T10:52:53.520Z,2.20
2018-05-08T10:55:20.223Z,2.53
2018-05-08T10:57:46.923Z,2.33
2018-05-08T11:00:13.680Z,2.42
2018-05-08T11:02:40.357Z,2.70
2018-05-08T11:05:07.076Z,2.55
2018-05-08T11:07:33.769Z,2.35
2018-05-08T11:10:00.489Z,2.58
2018-05-08T11:12:27.273Z,2.25
2018-05-08T11:14:53.912Z,2.35
2018-05-08T11:17:20.628Z,2.35
2018-05-08T11:19:47.379Z,2.28
2018-05-08T11:22:14.069Z,2.60
2018-05-08T11:24:40.763Z,2.25
2018-05-08T11:27:08.480Z,2.25
2018-05-08T11:29:35.232Z,2.60
2018-05-08T11:32:01.928Z,2.22
2018-05-08T11:34:28.628Z,2.55
2018-05-08T11:36:55.335Z,2.90
2018-05-08T11:39:22.134Z,2.45
2018-05-08T11:41:48.806Z,2.60
2018-05-08T11:44:15.504Z,2.60
2018-05-08T11:46:42.203Z,2.70
2018-05-08T11:49:08.895Z,2.33
2018-05-08T11:51:35.656Z,2.70
2018-05-08T11:54:02.522Z,2.53
2018-05-08T11:56:29.219Z,2.37
2018-05-08T11:58:55.915Z,2.47
2018-05-08T12:01:22.622Z,2.55
2018-05-08T12:03:49.331Z,2.60
2018-05-08T12:06:16.055Z,2.55
2018-05-08T12:08:42.758Z,2.65
2018-05-08T12:11:09.451Z,2.40
2018-05-08T12:13:36.163Z,2.20
2018-05-08T12:16:02.865Z,2.55
2018-05-08T12:18:29.576Z,2.72
2018-05-08T12:20:56.300Z,2.22
2018-05-08T12:23:23.003Z,2.60
2018-05-08T12:25:49.701Z,2.60
2018-05-08T12:28:16.404Z,2.62
2018-05-08T12:30:43.123Z,2.65
2018-05-08T12:33:09.868Z,2.65
2018-05-08T12:35:36.578Z,2.30
2018-05-08T12:38:03.538Z,2.50
2018-05-08T12:40:31.111Z,2.87
2018-05-08T12:42:57.815Z,2.58
2018-05-08T12:45:24.534Z,2.55
2018-05-08T12:47:51.235Z,2.60
2018-05-08T12:50:17.950Z,2.80
2018-05-08T12:52:44.712Z,2.80
2018-05-08T12:55:11.363Z,2.78
2018-05-08T12:57:38.082Z,2.70
2018-05-08T13:00:04.782Z,2.95
2018-05-08T13:02:31.497Z,2.50
2018-05-08T13:04:58.217Z,2.65
2018-05-08T13:07:24.915Z,2.60
2018-05-08T13:09:51.632Z,2.85
2018-05-08T13:12:18.329Z,2.50
2018-05-08T13:14:45.025Z,2.80
2018-05-08T13:17:11.724Z,2.70
2018-05-08T13:19:38.432Z,2.70
2018-05-08T13:22:05.143Z,2.60
2018-05-08T13:24:31.859Z,2.67
2018-05-08T13:26:58.567Z,2.80
2018-05-08T13:29:25.390Z,2.58
2018-05-08T13:31:52.129Z,2.70
2018-05-08T13:34:18.872Z,2.65
2018-05-08T13:36:45.599Z,2.53
2018-05-08T13:39:12.376Z,2.37
2018-05-08T13:41:39.079Z,2.37
2018-05-08T13:44:05.789Z,2.37
2018-05-08T13:46:32.524Z,3.10
2018-05-08T13:48:59.224Z,2.80
2018-05-08T13:51:25.936Z,2.65
2018-05-08T13:53:54.994Z,2.45
2018-05-08T13:56:21.704Z,2.60
2018-05-08T13:58:48.434Z,2.90
2018-05-08T14:01:15.149Z,2.83
2018-05-08T14:03:41.848Z,2.80
2018-05-08T14:06:08.552Z,2.60
2018-05-08T14:08:35.287Z,2.40
2018-05-08T14:11:02.038Z,2.70
2018-05-08T14:13:28.742Z,2.67
2018-05-08T14:15:55.441Z,2.60
2018-05-08T14:18:22.137Z,2.60
2018-05-08T14:20:48.854Z,2.60
2018-05-08T14:23:15.593Z,2.43
2018-05-08T14:25:42.284Z,2.80
2018-05-08T14:28:08.983Z,2.40
2018-05-08T14:30:35.695Z,2.60
2018-05-08T14:33:02.395Z,2.57
2018-05-08T14:35:29.323Z,2.83
2018-05-08T14:37:56.024Z,2.57
2018-05-08T14:40:22.722Z,2.70
2018-05-08T14:42:49.430Z,2.60
2018-05-08T14:45:16.134Z,2.63
2018-05-08T14:47:42.859Z,3.00
2018-05-08T14:50:09.563Z,2.80
2018-05-08T14:52:36.301Z,2.50
2018-05-08T14:55:02.995Z,2.37
2018-05-08T14:57:29.699Z,2.50
2018-05-08T14:59:56.422Z,2.60
2018-05-08T15:02:23.128Z,2.70
2018-05-08T15:04:49.835Z,2.53
2018-05-08T15:07:16.537Z,2.70
2018-05-08T15:09:43.248Z,2.40
2018-05-08T15:12:09.975Z,2.40
2018-05-08T15:14:37.507Z,2.33
2018-05-08T15:17:04.199Z,2.80
2018-05-08T15:19:30.908Z,2.70
2018-05-08T15:21:57.608Z,2.43
2018-05-08T15:24:24.332Z,2.53
2018-05-08T15:26:51.029Z,2.40
2018-05-08T15:29:17.727Z,2.40
2018-05-08T15:31:44.427Z,2.60
2018-05-08T15:34:11.128Z,2.70
2018-05-08T15:36:37.876Z,2.40
2018-05-08T15:39:05.408Z,2.50
2018-05-08T15:41:32.109Z,2.63
2018-05-08T15:43:58.804Z,2.60
2018-05-08T15:46:25.504Z,2.47
2018-05-08T15:48:52.430Z,2.47
2018-05-08T15:51:19.159Z,2.40
2018-05-08T15:53:45.859Z,2.57
2018-05-08T15:56:12.561Z,2.57
2018-05-08T15:58:39.255Z,2.57
2018-05-08T16:01:05.968Z,2.50
2018-05-08T16:03:32.667Z,2.50
2018-05-08T16:05:59.364Z,2.80
2018-05-08T16:08:26.074Z,2.73
2018-05-08T16:10:52.776Z,2.47
2018-05-08T16:13:19.494Z,2.70
2018-05-08T16:15:46.195Z,2.80
2018-05-08T16:18:12.895Z,2.27
2018-05-08T16:20:39.606Z,2.83
2018-05-08T16:23:06.301Z,2.57
2018-05-08T16:25:32.999Z,2.40
2018-05-08T16:27:59.724Z,2.50
2018-05-08T16:30:26.432Z,2.57
2018-05-08T16:32:53.136Z,2.50
2018-05-08T16:35:19.838Z,3.03
2018-05-08T16:37:46.535Z,3.00
2018-05-08T16:40:13.268Z,2.73
2018-05-08T16:42:39.968Z,2.47
2018-05-08T16:45:06.768Z,2.57
2018-05-08T16:47:33.601Z,2.90
2018-05-08T16:50:00.296Z,2.60
2018-05-08T16:52:27.016Z,2.90
2018-05-08T16:54:53.722Z,2.70
2018-05-08T16:57:20.417Z,2.77
2018-05-08T16:59:47.111Z,2.93
2018-05-08T17:02:13.811Z,2.53
2018-05-08T17:04:40.603Z,2.73
2018-05-08T17:07:07.282Z,2.80
2018-05-08T17:09:33.983Z,2.40
2018-05-08T17:12:00.679Z,2.43
2018-05-08T17:14:27.441Z,2.60
2018-05-08T17:16:54.160Z,2.47
2018-05-08T17:19:20.979Z,2.70
2018-05-08T17:21:47.579Z,2.73
2018-05-08T17:24:14.273Z,2.70
2018-05-08T17:26:40.983Z,2.63
2018-05-08T17:29:07.704Z,2.70
2018-05-08T17:31:34.428Z,2.37
2018-05-08T17:34:01.153Z,2.57
2018-05-08T17:36:27.855Z,2.33
2018-05-08T17:38:54.567Z,2.23
2018-05-08T17:41:21.288Z,2.60
2018-05-08T17:43:47.987Z,3.13
2018-05-08T17:46:14.691Z,2.50
2018-05-08T17:48:41.385Z,2.50
2018-05-08T17:51:08.080Z,2.73
2018-05-08T17:53:34.840Z,2.60
2018-05-08T17:56:01.546Z,2.53
2018-05-08T17:58:28.245Z,2.60
2018-05-08T18:00:54.940Z,2.53
2018-05-08T18:03:21.639Z,2.80
2018-05-08T18:05:48.338Z,2.50
2018-05-08T18:08:15.080Z,2.90
2018-05-08T18:10:41.779Z,2.73
2018-05-08T18:13:08.486Z,2.70
2018-05-08T18:15:35.186Z,2.90
2018-05-08T18:18:01.968Z,2.67
2018-05-08T18:20:28.667Z,2.77
2018-05-08T18:22:55.376Z,2.50
2018-05-08T18:25:22.081Z,2.67
2018-05-08T18:27:48.775Z,2.90
2018-05-08T18:30:15.495Z,2.63
2018-05-08T18:32:42.196Z,3.07
2018-05-08T18:35:08.895Z,2.90
2018-05-08T18:37:35.637Z,3.00
2018-05-08T18:40:02.336Z,2.83
2018-05-08T18:42:29.039Z,3.23
2018-05-08T18:44:55.763Z,3.00
2018-05-08T18:47:22.456Z,2.80
2018-05-08T18:49:49.155Z,2.90
2018-05-08T18:52:15.852Z,3.10
2018-05-08T18:54:42.549Z,3.07
2018-05-08T18:57:09.275Z,2.70
2018-05-08T18:59:35.992Z,2.70
2018-05-08T19:02:02.701Z,3.10
2018-05-08T19:04:29.391Z,3.30
2018-05-08T19:06:56.184Z,2.90
2018-05-08T19:09:22.891Z,3.20
2018-05-08T19:11:49.604Z,3.00
2018-05-08T19:14:16.299Z,2.90
2018-05-08T19:16:42.996Z,3.50
2018-05-08T19:19:15.387Z,3.40
2018-05-08T19:21:42.079Z,3.80
2018-05-08T19:24:14.547Z,3.63
2018-05-08T19:26:41.333Z,3.40
2018-05-08T19:29:13.692Z,3.60
2018-05-08T19:31:40.448Z,3.70
2018-05-08T19:34:07.127Z,3.57
2018-05-08T19:36:39.600Z,3.70
2018-05-08T19:39:06.318Z,3.73
2018-05-08T19:41:33.020Z,3.67
2018-05-08T19:44:00.239Z,4.30
2018-05-08T19:46:26.943Z,3.80
2018-05-08T19:48:53.639Z,3.90
2018-05-08T19:51:20.336Z,4.30
2018-05-08T19:53:47.033Z,4.13
2018-05-08T19:56:13.763Z,4.17
2018-05-08T19:58:40.455Z,3.80
2018-05-08T20:01:07.283Z,4.07
2018-05-08T20:03:33.988Z,4.00
2018-05-08T20:06:00.683Z,4.13
2018-05-08T20:08:27.410Z,4.10
2018-05-08T20:10:54.112Z,4.00
2018-05-08T20:13:20.812Z,3.70
2018-05-08T20:15:47.515Z,3.57
2018-05-08T20:18:14.216Z,3.83
2018-05-08T20:20:40.938Z,4.10
2018-05-08T20:23:07.941Z,3.87
2018-05-08T20:25:34.640Z,4.03
2018-05-08T20:28:01.383Z,4.73
2018-05-08T20:30:28.083Z,4.70
2018-05-08T20:32:54.814Z,4.50
2018-05-08T20:35:21.521Z,4.43
2018-05-08T20:37:48.220Z,4.63
2018-05-08T20:40:14.915Z,4.50
2018-05-08T20:42:41.619Z,4.60
2018-05-08T20:45:08.331Z,4.57
2018-05-08T20:47:35.283Z,4.40
2018-05-08T20:50:01.987Z,4.00
2018-05-08T20:52:28.684Z,4.13
2018-05-08T20:54:55.381Z,4.33
2018-05-08T20:57:22.099Z,4.13
2018-05-08T20:59:48.810Z,4.50
2018-05-08T21:02:15.517Z,4.40
2018-05-08T21:04:42.225Z,4.43
2018-05-08T21:07:08.950Z,3.80
2018-05-08T21:09:35.696Z,4.53
2018-05-08T21:12:02.408Z,4.47
2018-05-08T21:14:29.105Z,4.47
2018-05-08T21:16:55.878Z,4.80
2018-05-08T21:19:22.592Z,4.47
2018-05-08T21:21:49.308Z,4.00
2018-05-08T21:24:16.015Z,4.23
2018-05-08T21:26:42.711Z,4.23
2018-05-08T21:29:15.141Z,4.33
2018-05-08T21:31:41.831Z,4.43
2018-05-08T21:34:08.531Z,4.23
2018-05-08T21:36:35.282Z,4.50
2018-05-08T21:39:02.011Z,4.13
2018-05-08T21:41:28.712Z,4.50
2018-05-08T21:43:55.404Z,4.27
2018-05-08T21:46:22.099Z,3.93
2018-05-08T21:48:48.796Z,4.90
2018-05-08T21:51:15.511Z,4.20
2018-05-08T21:53:42.209Z,4.60
2018-05-08T21:56:08.917Z,5.07
2018-05-08T21:58:35.668Z,4.50
2018-05-08T22:01:02.387Z,4.50
2018-05-08T22:03:29.108Z,4.60
2018-05-08T22:05:55.800Z,4.17
2018-05-08T22:08:22.502Z,4.57
2018-05-08T22:10:49.227Z,4.73
2018-05-08T22:13:15.927Z,4.63
2018-05-08T22:15:42.656Z,5.13
2018-05-08T22:18:09.347Z,4.47
2018-05-08T22:20:36.279Z,4.40
2018-05-08T22:23:03.010Z,4.53
2018-05-08T22:25:29.734Z,4.60
2018-05-08T22:27:56.459Z,4.70
2018-05-08T22:30:23.166Z,4.37
2018-05-08T22:32:49.865Z,4.60
2018-05-08T22:35:16.556Z,4.20
2018-05-08T22:37:43.253Z,4.67
2018-05-08T22:40:10.012Z,4.47
2018-05-08T22:42:36.729Z,4.33
2018-05-08T22:45:03.427Z,4.57
2018-05-08T22:47:30.120Z,4.63
2018-05-08T22:49:56.819Z,4.80
2018-05-08T22:52:23.542Z,4.47
2018-05-08T22:54:50.246Z,4.63
2018-05-08T22:57:16.943Z,4.70
2018-05-08T22:59:43.647Z,4.30
2018-05-08T23:02:10.347Z,4.97
2018-05-08T23:04:37.068Z,5.00
2018-05-08T23:07:03.763Z,4.73
2018-05-08T23:09:30.473Z,4.50
2018-05-08T23:11:57.175Z,4.80
2018-05-08T23:14:23.874Z,4.80
2018-05-08T23:16:50.600Z,4.90
2018-05-08T23:19:17.299Z,4.37
2018-05-08T23:21:43.995Z,4.63
2018-05-08T23:24:10.691Z,4.80
2018-05-08T23:26:37.387Z,4.63
2018-05-08T23:29:04.111Z,4.57
2018-05-08T23:31:30.807Z,4.33
2018-05-08T23:33:57.503Z,4.17
2018-05-08T23:36:24.203Z,4.67
2018-05-08T23:38:50.907Z,4.43
2018-05-08T23:41:17.629Z,5.07
2018-05-08T23:43:44.327Z,3.93
2018-05-08T23:46:11.027Z,4.63
2018-05-08T23:48:37.731Z,4.53
2018-05-08T23:51:04.429Z,4.33
2018-05-08T23:53:31.204Z,4.47
2018-05-08T23:55:57.871Z,4.60
2018-05-08T23:58:24.572Z,4.40
